sensor_id;sensor_type;location;lat;lon;timestamp;pressure;altitude;pressure_sealevel;temperature;humidity
61786;BME280;47692;53.714;11.372;2023-08-07T00:00:33;99865.66;;;14.29;100.00
61786;BME280;47692;53.714;11.372;2023-08-07T00:02:58;99865.97;;;14.22;100.00
61786;BME280;47692;53.714;11.372;2023-08-07T00:05:23;99853.91;;;14.18;100.00
61786;BME280;47692;53.714;11.372;2023-08-07T00:07:48;99857.50;;;14.17;100.00
61786;BME280;47692;53.714;11.372;2023-08-07T00:10:14;99850.75;;;14.12;100.00
61786;BME280;47692;53.714;11.372;2023-08-07T00:12:39;99857.50;;;14.17;100.00
61786;BME280;47692;53.714;11.372;2023-08-07T00:15:05;99861.97;;;14.15;100.00
61786;BME280;47692;53.714;11.372;2023-08-07T00:17:31;99856.09;;;14.10;100.00
61786;BME280;47692;53.714;11.372;2023-08-07T00:19:56;99847.13;;;14.14;100.00
61786;BME280;47692;53.714;11.372;2023-08-07T00:22:22;99846.28;;;14.14;100.00
61786;BME280;47692;53.714;11.372;2023-08-07T00:24:47;99847.13;;;14.14;100.00
61786;BME280;47692;53.714;11.372;2023-08-07T00:27:12;99848.00;;;14.15;100.00
61786;BME280;47692;53.714;11.372;2023-08-07T00:29:39;99847.63;;;14.05;100.00
61786;BME280;47692;53.714;11.372;2023-08-07T00:32:05;99848.97;;;14.12;100.00
61786;BME280;47692;53.714;11.372;2023-08-07T00:34:30;99854.47;;;14.08;100.00
61786;BME280;47692;53.714;11.372;2023-08-07T00:36:56;99851.78;;;14.09;100.00
61786;BME280;47692;53.714;11.372;2023-08-07T00:39:21;99846.75;;;14.04;100.00
61786;BME280;47692;53.714;11.372;2023-08-07T00:41:46;99845.91;;;14.04;100.00
61786;BME280;47692;53.714;11.372;2023-08-07T00:44:12;99837.19;;;14.03;100.00
61786;BME280;47692;53.714;11.372;2023-08-07T00:46:38;99833.72;;;14.03;100.00
61786;BME280;47692;53.714;11.372;2023-08-07T00:49:05;99826.75;;;14.02;100.00
61786;BME280;47692;53.714;11.372;2023-08-07T00:51:31;99833.88;;;14.00;100.00
61786;BME280;47692;53.714;11.372;2023-08-07T00:53:57;99821.69;;;13.99;100.00
61786;BME280;47692;53.714;11.372;2023-08-07T00:56:24;99832.19;;;13.99;100.00
61786;BME280;47692;53.714;11.372;2023-08-07T00:58:50;99820.91;;;13.97;100.00
61786;BME280;47692;53.714;11.372;2023-08-07T01:01:15;99833.72;;;14.03;100.00
61786;BME280;47692;53.714;11.372;2023-08-07T01:03:41;99832.19;;;13.99;100.00
61786;BME280;47692;53.714;11.372;2023-08-07T01:06:06;99828.47;;;14.03;100.00
61786;BME280;47692;53.714;11.372;2023-08-07T01:08:32;99822.69;;;13.96;100.00
61786;BME280;47692;53.714;11.372;2023-08-07T01:16:50;99806.25;;;13.93;100.00
61786;BME280;47692;53.714;11.372;2023-08-07T01:19:24;99796.22;;;13.83;100.00
61786;BME280;47692;53.714;11.372;2023-08-07T01:21:54;99797.78;;;13.87;100.00
61786;BME280;47692;53.714;11.372;2023-08-07T01:24:28;99793.75;;;13.80;100.00
61786;BME280;47692;53.714;11.372;2023-08-07T01:26:55;99797.13;;;13.82;100.00
61786;BME280;47692;53.714;11.372;2023-08-07T01:29:29;99786.72;;;13.81;100.00
61786;BME280;47692;53.714;11.372;2023-08-07T01:32:00;99781.56;;;13.79;100.00
61786;BME280;47692;53.714;11.372;2023-08-07T01:34:27;99799.31;;;13.74;100.00
61786;BME280;47692;53.714;11.372;2023-08-07T01:36:54;99782.50;;;13.78;100.00
61786;BME280;47692;53.714;11.372;2023-08-07T01:39:21;99781.09;;;13.71;100.00
61786;BME280;47692;53.714;11.372;2023-08-07T01:41:48;99774.16;;;13.70;100.00
61786;BME280;47692;53.714;11.372;2023-08-07T01:44:13;99780.09;;;13.73;100.00
61786;BME280;47692;53.714;11.372;2023-08-07T01:46:39;99762.91;;;13.68;100.00
61786;BME280;47692;53.714;11.372;2023-08-07T01:49:04;99763.00;;;13.66;100.00
61786;BME280;47692;53.714;11.372;2023-08-07T01:51:29;99770.78;;;13.68;100.00
61786;BME280;47692;53.714;11.372;2023-08-07T01:53:55;99763.97;;;13.64;100.00
61786;BME280;47692;53.714;11.372;2023-08-07T01:56:20;99745.88;;;13.59;100.00
61786;BME280;47692;53.714;11.372;2023-08-07T01:58:45;99762.34;;;13.61;100.00
61786;BME280;47692;53.714;11.372;2023-08-07T02:01:11;99753.78;;;13.57;100.00
61786;BME280;47692;53.714;11.372;2023-08-07T02:03:36;99758.28;;;13.55;100.00
61786;BME280;47692;53.714;11.372;2023-08-07T02:06:01;99753.97;;;13.54;100.00
61786;BME280;47692;53.714;11.372;2023-08-07T02:08:28;99755.81;;;13.52;100.00
61786;BME280;47692;53.714;11.372;2023-08-07T02:10:53;99749.72;;;13.52;100.00
61786;BME280;47692;53.714;11.372;2023-08-07T02:13:18;99750.56;;;13.52;100.00
61786;BME280;47692;53.714;11.372;2023-08-07T02:15:43;99742.69;;;13.52;100.00
61786;BME280;47692;53.714;11.372;2023-08-07T02:18:09;99749.19;;;13.45;100.00
61786;BME280;47692;53.714;11.372;2023-08-07T02:20:34;99742.09;;;13.47;100.00
61786;BME280;47692;53.714;11.372;2023-08-07T02:22:59;99739.53;;;13.46;100.00
61786;BME280;47692;53.714;11.372;2023-08-07T02:25:25;99742.25;;;13.44;100.00
61786;BME280;47692;53.714;11.372;2023-08-07T02:27:50;99743.16;;;13.43;100.00
61786;BME280;47692;53.714;11.372;2023-08-07T02:30:15;99742.38;;;13.41;100.00
61786;BME280;47692;53.714;11.372;2023-08-07T02:32:41;99740.81;;;13.37;100.00
61786;BME280;47692;53.714;11.372;2023-08-07T02:35:08;99751.31;;;13.37;100.00
61786;BME280;47692;53.714;11.372;2023-08-07T02:37:33;99748.69;;;13.37;100.00
61786;BME280;47692;53.714;11.372;2023-08-07T02:39:58;99741.91;;;13.33;100.00
61786;BME280;47692;53.714;11.372;2023-08-07T02:42:24;99746.38;;;13.31;100.00
61786;BME280;47692;53.714;11.372;2023-08-07T02:44:49;99742.97;;;13.29;100.00
61786;BME280;47692;53.714;11.372;2023-08-07T02:47:14;99739.44;;;13.30;100.00
61786;BME280;47692;53.714;11.372;2023-08-07T02:49:40;99744.44;;;13.34;100.00
61786;BME280;47692;53.714;11.372;2023-08-07T02:52:05;99744.44;;;13.34;100.00
61786;BME280;47692;53.714;11.372;2023-08-07T02:54:31;99745.44;;;13.32;100.00
61786;BME280;47692;53.714;11.372;2023-08-07T02:56:57;99740.34;;;13.29;100.00
61786;BME280;47692;53.714;11.372;2023-08-07T02:59:22;99728.09;;;13.29;100.00
61786;BME280;47692;53.714;11.372;2023-08-07T03:01:47;99733.34;;;13.29;100.00
61786;BME280;47692;53.714;11.372;2023-08-07T03:04:13;99740.03;;;13.35;100.00
61786;BME280;47692;53.714;11.372;2023-08-07T03:06:38;99732.34;;;13.32;100.00
61786;BME280;47692;53.714;11.372;2023-08-07T03:09:03;99733.34;;;13.29;100.00
61786;BME280;47692;53.714;11.372;2023-08-07T03:11:28;99733.41;;;13.28;100.00
61786;BME280;47692;53.714;11.372;2023-08-07T03:13:54;99729.84;;;13.29;100.00
61786;BME280;47692;53.714;11.372;2023-08-07T03:16:19;99737.88;;;13.25;100.00
61786;BME280;47692;53.714;11.372;2023-08-07T03:18:45;99732.78;;;13.22;100.00
61786;BME280;47692;53.714;11.372;2023-08-07T03:21:11;99732.78;;;13.22;100.00
61786;BME280;47692;53.714;11.372;2023-08-07T03:23:37;99727.72;;;13.19;100.00
61786;BME280;47692;53.714;11.372;2023-08-07T03:26:07;99725.22;;;13.16;100.00
61786;BME280;47692;53.714;11.372;2023-08-07T03:28:34;99719.06;;;13.17;100.00
61786;BME280;47692;53.714;11.372;2023-08-07T03:30:59;99743.28;;;13.22;100.00
61786;BME280;47692;53.714;11.372;2023-08-07T03:33:25;99742.22;;;13.27;100.00
61786;BME280;47692;53.714;11.372;2023-08-07T03:35:50;99729.56;;;13.17;100.00
61786;BME280;47692;53.714;11.372;2023-08-07T03:38:15;99721.69;;;13.17;100.00
61786;BME280;47692;53.714;11.372;2023-08-07T03:40:41;99719.84;;;13.19;100.00
61786;BME280;47692;53.714;11.372;2023-08-07T03:43:06;99722.47;;;13.19;100.00
61786;BME280;47692;53.714;11.372;2023-08-07T03:45:31;99715.53;;;13.18;100.00
61786;BME280;47692;53.714;11.372;2023-08-07T03:47:56;99723.47;;;13.17;100.00
61786;BME280;47692;53.714;11.372;2023-08-07T03:50:22;99726.84;;;13.19;100.00
61786;BME280;47692;53.714;11.372;2023-08-07T03:52:47;99729.56;;;13.17;100.00
61786;BME280;47692;53.714;11.372;2023-08-07T03:55:12;99724.31;;;13.17;100.00
61786;BME280;47692;53.714;11.372;2023-08-07T03:57:38;99728.84;;;13.14;100.00
61786;BME280;47692;53.714;11.372;2023-08-07T04:00:03;99731.38;;;13.15;100.00
61786;BME280;47692;53.714;11.372;2023-08-07T04:02:29;99736.63;;;13.15;100.00
61786;BME280;47692;53.714;11.372;2023-08-07T04:04:55;99736.72;;;13.14;100.00
61786;BME280;47692;53.714;11.372;2023-08-07T04:07:20;99735.19;;;13.09;100.00
61786;BME280;47692;53.714;11.372;2023-08-07T04:09:45;99735.88;;;13.13;100.00
61786;BME280;47692;53.714;11.372;2023-08-07T04:12:11;99740.19;;;13.14;100.00
61786;BME280;47692;53.714;11.372;2023-08-07T04:14:36;99736.63;;;13.15;100.00
61786;BME280;47692;53.714;11.372;2023-08-07T04:17:01;99740.03;;;13.17;100.00
61786;BME280;47692;53.714;11.372;2023-08-07T04:19:27;99747.09;;;13.15;100.00
61786;BME280;47692;53.714;11.372;2023-08-07T04:21:54;99740.03;;;13.17;100.00
61786;BME280;47692;53.714;11.372;2023-08-07T04:24:19;99746.97;;;13.18;100.00
61786;BME280;47692;53.714;11.372;2023-08-07T04:26:45;99754.75;;;13.20;100.00
61786;BME280;47692;53.714;11.372;2023-08-07T04:29:10;99746.97;;;13.18;100.00
61786;BME280;47692;53.714;11.372;2023-08-07T04:31:35;99743.44;;;13.19;100.00
61786;BME280;47692;53.714;11.372;2023-08-07T04:34:01;99740.03;;;13.17;100.00
61786;BME280;47692;53.714;11.372;2023-08-07T04:36:26;99745.34;;;13.16;100.00
61786;BME280;47692;53.714;11.372;2023-08-07T04:38:51;99737.41;;;13.17;100.00
61786;BME280;47692;53.714;11.372;2023-08-07T04:41:17;99739.03;;;13.20;100.00
61786;BME280;47692;53.714;11.372;2023-08-07T04:43:42;99743.44;;;13.19;100.00
61786;BME280;47692;53.714;11.372;2023-08-07T04:46:11;99742.44;;;13.22;100.00
61786;BME280;47692;53.714;11.372;2023-08-07T04:48:37;99738.94;;;13.21;100.00
61786;BME280;47692;53.714;11.372;2023-08-07T04:51:02;99735.50;;;13.21;100.00
61786;BME280;47692;53.714;11.372;2023-08-07T04:53:28;99749.44;;;13.21;100.00
61786;BME280;47692;53.714;11.372;2023-08-07T04:55:53;99738.03;;;13.22;100.00
61786;BME280;47692;53.714;11.372;2023-08-07T04:58:19;99742.25;;;13.25;100.00
61786;BME280;47692;53.714;11.372;2023-08-07T05:00:44;99752.06;;;13.21;100.00
61786;BME280;47692;53.714;11.372;2023-08-07T05:03:09;99747.59;;;13.23;100.00
61786;BME280;47692;53.714;11.372;2023-08-07T05:05:34;99743.97;;;13.26;100.00
61786;BME280;47692;53.714;11.372;2023-08-07T05:08:00;99762.09;;;13.31;100.00
61786;BME280;47692;53.714;11.372;2023-08-07T05:10:25;99759.47;;;13.31;100.00
61786;BME280;47692;53.714;11.372;2023-08-07T05:12:51;99750.75;;;13.30;100.00
61786;BME280;47692;53.714;11.372;2023-08-07T05:15:23;99764.81;;;13.29;100.00
61786;BME280;47692;53.714;11.372;2023-08-07T05:17:50;99755.84;;;13.33;100.00
61786;BME280;47692;53.714;11.372;2023-08-07T05:20:15;99758.38;;;13.35;100.00
61786;BME280;47692;53.714;11.372;2023-08-07T05:22:41;99753.16;;;13.35;100.00
61786;BME280;47692;53.714;11.372;2023-08-07T05:25:06;99752.22;;;13.36;100.00
61786;BME280;47692;53.714;11.372;2023-08-07T05:27:32;99755.59;;;13.39;100.00
61786;BME280;47692;53.714;11.372;2023-08-07T05:29:57;99760.81;;;13.39;100.00
61786;BME280;47692;53.714;11.372;2023-08-07T05:32:22;99757.19;;;13.42;100.00
61786;BME280;47692;53.714;11.372;2023-08-07T05:34:48;99759.69;;;13.45;100.00
61786;BME280;47692;53.714;11.372;2023-08-07T05:37:13;99768.31;;;13.47;100.00
61786;BME280;47692;53.714;11.372;2023-08-07T05:39:38;99762.84;;;13.52;100.00
61786;BME280;47692;53.714;11.372;2023-08-07T05:42:04;99771.22;;;13.58;100.00
61786;BME280;47692;53.714;11.372;2023-08-07T05:44:29;99772.78;;;13.63;100.00
61786;BME280;47692;53.714;11.372;2023-08-07T05:46:55;99772.63;;;13.66;100.00
61786;BME280;47692;53.714;11.372;2023-08-07T05:49:20;99770.88;;;13.66;100.00
61786;BME280;47692;53.714;11.372;2023-08-07T05:51:46;99761.81;;;13.72;100.00
61786;BME280;47692;53.714;11.372;2023-08-07T05:54:11;99781.66;;;13.78;100.00
61786;BME280;47692;53.714;11.372;2023-08-07T05:56:37;99782.19;;;13.84;100.00
61786;BME280;47692;53.714;11.372;2023-08-07T05:59:03;99774.22;;;13.86;100.00
61786;BME280;47692;53.714;11.372;2023-08-07T06:01:28;99776.78;;;13.87;100.00
61786;BME280;47692;53.714;11.372;2023-08-07T06:03:57;99770.69;;;13.87;100.00
61786;BME280;47692;53.714;11.372;2023-08-07T06:06:24;99775.59;;;13.93;100.00
61786;BME280;47692;53.714;11.372;2023-08-07T06:08:50;99775.38;;;13.98;100.00
61786;BME280;47692;53.714;11.372;2023-08-07T06:11:15;99784.94;;;13.99;100.00
61786;BME280;47692;53.714;11.372;2023-08-07T06:13:41;99777.69;;;14.04;100.00
61786;BME280;47692;53.714;11.372;2023-08-07T06:16:06;99774.19;;;14.03;100.00
61786;BME280;47692;53.714;11.372;2023-08-07T06:18:35;99763.47;;;14.08;100.00
61786;BME280;47692;53.714;11.372;2023-08-07T06:21:00;99768.38;;;14.14;100.00
61786;BME280;47692;53.714;11.372;2023-08-07T06:23:26;99768.25;;;14.17;100.00
61786;BME280;47692;53.714;11.372;2023-08-07T06:25:51;99769.84;;;14.20;100.00
61786;BME280;47692;53.714;11.372;2023-08-07T06:28:16;99767.91;;;14.24;100.00
61786;BME280;47692;53.714;11.372;2023-08-07T06:30:42;99776.53;;;14.26;100.00
61786;BME280;47692;53.714;11.372;2023-08-07T06:33:07;99776.22;;;14.32;100.00
61786;BME280;47692;53.714;11.372;2023-08-07T06:35:40;99781.38;;;14.33;100.00
61786;BME280;47692;53.714;11.372;2023-08-07T06:38:07;99763.69;;;14.37;100.00
61786;BME280;47692;53.714;11.372;2023-08-07T06:40:35;99784.69;;;14.37;100.00
61786;BME280;47692;53.714;11.372;2023-08-07T06:43:00;99774.03;;;14.40;100.00
61786;BME280;47692;53.714;11.372;2023-08-07T06:45:25;99775.56;;;14.44;100.00
61786;BME280;47692;53.714;11.372;2023-08-07T06:47:51;99774.38;;;14.50;100.00
61786;BME280;47692;53.714;11.372;2023-08-07T06:50:16;99782.00;;;14.54;100.00
61786;BME280;47692;53.714;11.372;2023-08-07T06:52:42;99780.91;;;14.59;100.00
61786;BME280;47692;53.714;11.372;2023-08-07T06:55:07;99788.94;;;14.55;100.00
61786;BME280;47692;53.714;11.372;2023-08-07T06:57:32;99774.56;;;14.63;100.00
61786;BME280;47692;53.714;11.372;2023-08-07T06:59:58;99788.50;;;14.65;100.00
61786;BME280;47692;53.714;11.372;2023-08-07T07:02:23;99777.47;;;14.74;100.00
61786;BME280;47692;53.714;11.372;2023-08-07T07:04:48;99776.53;;;14.75;100.00
61786;BME280;47692;53.714;11.372;2023-08-07T07:07:14;99761.38;;;14.80;100.00
61786;BME280;47692;53.714;11.372;2023-08-07T07:09:39;99778.75;;;14.83;100.00
61786;BME280;47692;53.714;11.372;2023-08-07T07:12:05;99785.34;;;14.90;100.00
61786;BME280;47692;53.714;11.372;2023-08-07T07:14:32;99778.34;;;14.91;100.00
61786;BME280;47692;53.714;11.372;2023-08-07T07:16:58;99786.81;;;14.96;100.00
61786;BME280;47692;53.714;11.372;2023-08-07T07:19:24;99782.28;;;14.98;100.00
61786;BME280;47692;53.714;11.372;2023-08-07T07:21:49;99782.81;;;15.05;99.55
61786;BME280;47692;53.714;11.372;2023-08-07T07:24:15;99793.22;;;15.06;98.37
61786;BME280;47692;53.714;11.372;2023-08-07T07:26:40;99775.75;;;15.05;97.00
61786;BME280;47692;53.714;11.372;2023-08-07T07:29:05;99791.19;;;15.11;97.14
61786;BME280;47692;53.714;11.372;2023-08-07T07:31:32;99784.16;;;15.12;97.31
61786;BME280;47692;53.714;11.372;2023-08-07T07:33:57;99789.16;;;15.16;96.37
61786;BME280;47692;53.714;11.372;2023-08-07T07:36:22;99797.63;;;15.22;95.59
61786;BME280;47692;53.714;11.372;2023-08-07T07:38:48;99801.00;;;15.24;95.11
61786;BME280;47692;53.714;11.372;2023-08-07T07:41:16;99794.72;;;15.26;94.15
61786;BME280;47692;53.714;11.372;2023-08-07T07:43:42;99800.50;;;15.33;93.19
61786;BME280;47692;53.714;11.372;2023-08-07T07:46:08;99798.63;;;15.35;93.47
61786;BME280;47692;53.714;11.372;2023-08-07T07:48:33;99796.75;;;15.37;92.17
61786;BME280;47692;53.714;11.372;2023-08-07T07:51:02;99815.94;;;15.39;90.42
61786;BME280;47692;53.714;11.372;2023-08-07T07:53:28;99791.41;;;15.39;88.30
61786;BME280;47692;53.714;11.372;2023-08-07T07:55:53;99798.44;;;15.38;88.24
61786;BME280;47692;53.714;11.372;2023-08-07T07:58:19;99806.91;;;15.43;89.13
61786;BME280;47692;53.714;11.372;2023-08-07T08:00:45;99792.84;;;15.44;88.49
61786;BME280;47692;53.714;11.372;2023-08-07T08:03:11;99793.56;;;15.46;87.91
61786;BME280;47692;53.714;11.372;2023-08-07T08:05:37;99799.59;;;15.48;87.51
61786;BME280;47692;53.714;11.372;2023-08-07T08:08:03;99811.81;;;15.49;87.86
61786;BME280;47692;53.714;11.372;2023-08-07T08:10:28;99812.59;;;15.51;87.69
61786;BME280;47692;53.714;11.372;2023-08-07T08:12:56;99786.28;;;15.51;85.88
61786;BME280;47692;53.714;11.372;2023-08-07T08:15:22;99804.50;;;15.55;84.93
61786;BME280;47692;53.714;11.372;2023-08-07T08:17:48;99819.09;;;15.60;85.74
61786;BME280;47692;53.714;11.372;2023-08-07T08:20:14;99816.19;;;15.65;86.08
61786;BME280;47692;53.714;11.372;2023-08-07T08:22:46;99813.50;;;15.66;85.81
61786;BME280;47692;53.714;11.372;2023-08-07T08:25:11;99821.44;;;15.65;85.10
61786;BME280;47692;53.714;11.372;2023-08-07T08:27:40;99814.31;;;15.67;84.60
61786;BME280;47692;53.714;11.372;2023-08-07T08:30:06;99821.03;;;15.73;84.58
61786;BME280;47692;53.714;11.372;2023-08-07T08:32:32;99817.25;;;15.77;84.62
61786;BME280;47692;53.714;11.372;2023-08-07T08:34:57;99827.03;;;15.75;83.98
61786;BME280;47692;53.714;11.372;2023-08-07T08:37:22;99810.03;;;15.80;83.74
61786;BME280;47692;53.714;11.372;2023-08-07T08:39:48;99816.84;;;15.85;83.83
61786;BME280;47692;53.714;11.372;2023-08-07T08:42:14;99818.34;;;15.89;84.00
61786;BME280;47692;53.714;11.372;2023-08-07T08:44:52;99821.56;;;15.94;82.38
61786;BME280;47692;53.714;11.372;2023-08-07T08:47:18;99830.41;;;15.93;83.27
61786;BME280;47692;53.714;11.372;2023-08-07T08:49:47;99833.59;;;15.98;82.42
61786;BME280;47692;53.714;11.372;2023-08-07T08:52:15;99840.38;;;16.02;81.30
61786;BME280;47692;53.714;11.372;2023-08-07T08:54:41;99838.31;;;16.07;81.76
61786;BME280;47692;53.714;11.372;2023-08-07T08:57:07;99851.31;;;16.10;82.13
61786;BME280;47692;53.714;11.372;2023-08-07T08:59:33;99838.81;;;16.14;81.70
61786;BME280;47692;53.714;11.372;2023-08-07T09:01:59;99833.34;;;16.17;81.05
61786;BME280;47692;53.714;11.372;2023-08-07T09:04:24;99835.88;;;16.19;79.82
61786;BME280;47692;53.714;11.372;2023-08-07T09:06:50;99833.63;;;16.27;79.81
61786;BME280;47692;53.714;11.372;2023-08-07T09:09:16;99843.22;;;16.28;78.56
61786;BME280;47692;53.714;11.372;2023-08-07T09:11:44;99842.47;;;16.26;78.08
61786;BME280;47692;53.714;11.372;2023-08-07T09:14:15;99832.31;;;16.34;78.30
61786;BME280;47692;53.714;11.372;2023-08-07T09:16:41;99847.00;;;16.38;78.10
61786;BME280;47692;53.714;11.372;2023-08-07T09:19:06;99842.13;;;16.46;77.42
61786;BME280;47692;53.714;11.372;2023-08-07T09:21:32;99828.34;;;16.56;77.06
61786;BME280;47692;53.714;11.372;2023-08-07T09:23:57;99854.16;;;16.65;77.10
61786;BME280;47692;53.714;11.372;2023-08-07T09:26:23;99847.75;;;16.69;75.91
61786;BME280;47692;53.714;11.372;2023-08-07T09:28:51;99840.59;;;16.71;75.17
61786;BME280;47692;53.714;11.372;2023-08-07T09:31:17;99839.44;;;16.75;75.38
61786;BME280;47692;53.714;11.372;2023-08-07T09:33:46;99851.59;;;16.78;74.48
61786;BME280;47692;53.714;11.372;2023-08-07T09:36:12;99845.22;;;16.82;75.78
61786;BME280;47692;53.714;11.372;2023-08-07T09:38:37;99844.16;;;16.85;74.65
61786;BME280;47692;53.714;11.372;2023-08-07T09:41:03;99842.47;;;16.84;73.56
61786;BME280;47692;53.714;11.372;2023-08-07T09:43:29;99839.94;;;16.82;72.68
61786;BME280;47692;53.714;11.372;2023-08-07T09:46:05;99853.19;;;16.80;72.47
61786;BME280;47692;53.714;11.372;2023-08-07T09:48:31;99837.91;;;16.86;72.17
61786;BME280;47692;53.714;11.372;2023-08-07T09:51:01;99838.91;;;16.85;70.81
61786;BME280;47692;53.714;11.372;2023-08-07T09:53:29;99856.97;;;16.91;71.50
61786;BME280;47692;53.714;11.372;2023-08-07T09:55:55;99846.13;;;16.95;70.33
61786;BME280;47692;53.714;11.372;2023-08-07T09:58:21;99859.03;;;17.00;70.76
61786;BME280;47692;53.714;11.372;2023-08-07T10:00:47;99851.41;;;16.95;71.63
61786;BME280;47692;53.714;11.372;2023-08-07T10:03:13;99859.03;;;17.00;70.65
61786;BME280;47692;53.714;11.372;2023-08-07T10:05:39;99864.97;;;17.04;67.85
61786;BME280;47692;53.714;11.372;2023-08-07T10:08:05;99860.53;;;17.04;67.30
61786;BME280;47692;53.714;11.372;2023-08-07T10:10:34;99863.75;;;17.09;67.70
61786;BME280;47692;53.714;11.372;2023-08-07T10:13:02;99842.81;;;17.06;67.65
61786;BME280;47692;53.714;11.372;2023-08-07T10:15:29;99856.75;;;17.08;67.82
61786;BME280;47692;53.714;11.372;2023-08-07T10:17:54;99866.28;;;17.11;68.69
61786;BME280;47692;53.714;11.372;2023-08-07T10:20:20;99866.72;;;17.18;68.31
61786;BME280;47692;53.714;11.372;2023-08-07T10:22:46;99890.16;;;17.22;67.12
61786;BME280;47692;53.714;11.372;2023-08-07T10:25:13;99881.97;;;17.27;66.79
61786;BME280;47692;53.714;11.372;2023-08-07T10:27:40;99869.91;;;17.23;66.11
61786;BME280;47692;53.714;11.372;2023-08-07T10:30:09;99875.19;;;17.23;66.69
61786;BME280;47692;53.714;11.372;2023-08-07T10:32:37;99878.56;;;17.25;66.68
61786;BME280;47692;53.714;11.372;2023-08-07T10:35:04;99863.50;;;17.27;67.67
61786;BME280;47692;53.714;11.372;2023-08-07T10:40:06;99870.63;;;17.39;68.32
61786;BME280;47692;53.714;11.372;2023-08-07T10:43:11;99869.72;;;17.26;69.32
61786;BME280;47692;53.714;11.372;2023-08-07T10:45:37;99872.47;;;17.24;70.55
61786;BME280;47692;53.714;11.372;2023-08-07T10:48:07;99880.66;;;17.20;70.51
61786;BME280;47692;53.714;11.372;2023-08-07T10:50:35;99878.03;;;17.05;70.75
61786;BME280;47692;53.714;11.372;2023-08-07T10:53:04;99886.22;;;17.01;72.44
61786;BME280;47692;53.714;11.372;2023-08-07T10:55:45;99865.97;;;16.87;73.39
61786;BME280;47692;53.714;11.372;2023-08-07T10:58:36;99858.84;;;16.89;74.73
61786;BME280;47692;53.714;11.372;2023-08-07T11:01:42;99868.66;;;17.01;75.32
61786;BME280;47692;53.714;11.372;2023-08-07T11:04:09;99868.63;;;17.16;75.83
61786;BME280;47692;53.714;11.372;2023-08-07T11:06:36;99872.69;;;17.34;74.64
61786;BME280;47692;53.714;11.372;2023-08-07T11:09:03;99843.63;;;17.49;72.49
61786;BME280;47692;53.714;11.372;2023-08-07T11:11:44;99866.56;;;17.61;72.59
61786;BME280;47692;53.714;11.372;2023-08-07T11:14:12;99884.84;;;17.64;71.67
61786;BME280;47692;53.714;11.372;2023-08-07T11:16:38;99868.06;;;17.65;70.17
61786;BME280;47692;53.714;11.372;2023-08-07T11:19:04;99887.88;;;17.85;70.69
61786;BME280;47692;53.714;11.372;2023-08-07T11:21:33;99890.16;;;18.17;71.20
61786;BME280;47692;53.714;11.372;2023-08-07T11:23:59;99884.69;;;18.33;70.61
61786;BME280;47692;53.714;11.372;2023-08-07T11:26:25;99874.22;;;18.19;68.68
61786;BME280;47692;53.714;11.372;2023-08-07T11:28:53;99877.59;;;18.08;67.88
61786;BME280;47692;53.714;11.372;2023-08-07T11:31:18;99901.47;;;18.06;67.82
61786;BME280;47692;53.714;11.372;2023-08-07T11:33:44;99890.28;;;18.16;67.71
61786;BME280;47692;53.714;11.372;2023-08-07T11:36:11;99870.31;;;18.12;66.43
61786;BME280;47692;53.714;11.372;2023-08-07T11:38:39;99893.84;;;18.15;67.63
61786;BME280;47692;53.714;11.372;2023-08-07T11:41:06;99884.06;;;17.89;67.72
61786;BME280;47692;53.714;11.372;2023-08-07T11:43:33;99888.56;;;17.74;67.43
61786;BME280;47692;53.714;11.372;2023-08-07T11:46:11;99884.41;;;17.57;67.26
61786;BME280;47692;53.714;11.372;2023-08-07T11:48:38;99874.47;;;17.48;67.47
61786;BME280;47692;53.714;11.372;2023-08-07T11:51:05;99875.25;;;17.36;68.27
61786;BME280;47692;53.714;11.372;2023-08-07T11:53:32;99866.06;;;17.41;68.61
61786;BME280;47692;53.714;11.372;2023-08-07T11:56:00;99886.25;;;17.42;68.36
61786;BME280;47692;53.714;11.372;2023-08-07T11:58:35;99886.63;;;17.36;68.72
61786;BME280;47692;53.714;11.372;2023-08-07T12:01:04;99899.84;;;17.22;69.07
61786;BME280;47692;53.714;11.372;2023-08-07T12:03:35;99869.56;;;16.86;71.28
61786;BME280;47692;53.714;11.372;2023-08-07T12:06:05;99894.16;;;16.72;71.45
61786;BME280;47692;53.714;11.372;2023-08-07T12:08:32;99883.50;;;16.73;71.67
61786;BME280;47692;53.714;11.372;2023-08-07T12:11:01;99888.78;;;16.88;71.60
61786;BME280;47692;53.714;11.372;2023-08-07T12:13:26;99890.13;;;17.09;69.71
61786;BME280;47692;53.714;11.372;2023-08-07T12:15:56;99883.84;;;17.25;69.62
61786;BME280;47692;53.714;11.372;2023-08-07T12:18:22;99895.56;;;17.48;70.16
61786;BME280;47692;53.714;11.372;2023-08-07T12:20:51;99909.22;;;17.68;69.00
61786;BME280;47692;53.714;11.372;2023-08-07T12:23:18;99898.72;;;17.81;68.78
61786;BME280;47692;53.714;11.372;2023-08-07T12:25:45;99890.81;;;17.81;68.28
61786;BME280;47692;53.714;11.372;2023-08-07T12:28:10;99895.69;;;17.87;69.30
61786;BME280;47692;53.714;11.372;2023-08-07T12:30:37;99896.78;;;17.97;69.07
61786;BME280;47692;53.714;11.372;2023-08-07T12:33:02;99896.34;;;17.90;68.65
61786;BME280;47692;53.714;11.372;2023-08-07T12:35:30;99885.47;;;17.95;67.61
61786;BME280;47692;53.714;11.372;2023-08-07T12:37:55;99901.47;;;18.19;66.32
61786;BME280;47692;53.714;11.372;2023-08-07T12:40:20;99895.78;;;18.25;65.14
61786;BME280;47692;53.714;11.372;2023-08-07T12:42:48;99889.22;;;18.31;64.99
61786;BME280;47692;53.714;11.372;2023-08-07T12:45:13;100119.59;;;18.23;65.45
61786;BME280;47692;53.714;11.372;2023-08-07T12:47:40;99911.81;;;18.22;65.78
61786;BME280;47692;53.714;11.372;2023-08-07T12:50:07;99923.97;;;18.12;65.10